Time;durP1;ratioP1;P1;durP2;ratioP2;P2;SDS_P1;SDS_P2;PMS_P1;PMS_P2;Temp;Humidity;BMP_temperature;BMP_pressure;BME280_temperature;BME280_humidity;BME280_pressure;Samples;Min_cycle;Max_cycle;Signal;HPM_P1;HPM_P2
2021/11/30 00:00:57;;;;;;;3.83;0.90;;;4.80;93.70;;;;;;2073178;28;20388;-89
2021/11/30 00:01:58;;;;;;;2.58;0.90;;;4.90;93.70;;;;;;2073523;28;20030;-88
2021/11/30 00:02:58;;;;;;;5.75;1.10;;;4.90;93.70;;;;;;2089909;28;20098;-88
2021/11/30 00:03:59;;;;;;;2.85;0.90;;;4.90;93.60;;;;;;2088819;28;20797;-88
2021/11/30 00:05:00;;;;;;;2.95;0.90;;;4.90;93.60;;;;;;2064786;28;20442;-88
2021/11/30 00:06:01;;;;;;;1.85;0.88;;;4.90;93.60;;;;;;2072958;28;20017;-88
2021/11/30 00:07:02;;;;;;;3.60;1.00;;;4.90;93.60;;;;;;2089354;28;20025;-88
2021/11/30 00:08:04;;;;;;;1.75;0.90;;;4.90;93.60;;;;;;2070619;28;20543;-89
2021/11/30 00:10:44;;;;;;;3.47;0.95;;;4.90;93.60;;;;;;2072473;28;20034;-88
2021/11/30 00:11:45;;;;;;;2.80;1.20;;;4.90;93.60;;;;;;2065208;28;20054;-90
2021/11/30 00:12:46;;;;;;;3.47;1.40;;;4.90;93.50;;;;;;2063928;28;20038;-87
2021/11/30 00:13:46;;;;;;;3.67;1.13;;;4.90;93.50;;;;;;2072694;28;20049;-88
2021/11/30 00:14:49;;;;;;;2.90;1.30;;;4.90;93.50;;;;;;2073965;28;20030;-89
2021/11/30 00:15:52;;;;;;;3.70;1.10;;;4.90;93.50;;;;;;2080341;28;20052;-89
2021/11/30 00:16:52;;;;;;;4.32;1.60;;;4.90;93.50;;;;;;2073018;28;20370;-89
2021/11/30 00:17:53;;;;;;;5.25;1.38;;;4.90;93.50;;;;;;2064833;28;20105;-88
2021/11/30 00:18:54;;;;;;;3.88;1.40;;;4.90;93.50;;;;;;2054102;28;20043;-89
2021/11/30 00:19:55;;;;;;;4.00;1.25;;;4.90;93.50;;;;;;2057093;28;20031;-88
2021/11/30 00:20:55;;;;;;;3.75;1.70;;;4.90;93.50;;;;;;2067539;28;20476;-89
2021/11/30 00:21:56;;;;;;;4.00;1.40;;;4.90;93.40;;;;;;2065060;28;20034;-89
2021/11/30 00:22:57;;;;;;;4.07;1.35;;;4.90;93.40;;;;;;2056950;28;20027;-89
2021/11/30 00:23:58;;;;;;;4.45;1.60;;;4.90;93.40;;;;;;2055867;28;20104;-89
2021/11/30 00:24:58;;;;;;;4.03;1.48;;;4.90;93.70;;;;;;2057026;28;20046;-89
2021/11/30 00:26:00;;;;;;;4.47;1.70;;;4.90;93.40;;;;;;2064912;28;20064;-89
2021/11/30 00:27:01;;;;;;;4.75;1.70;;;4.90;93.40;;;;;;2072881;28;20037;-89
2021/11/30 00:28:04;;;;;;;6.03;2.20;;;4.90;93.40;;;;;;2064432;28;20035;-89
2021/11/30 00:29:05;;;;;;;3.40;1.83;;;4.90;93.40;;;;;;2064807;28;20102;-89
2021/11/30 00:30:06;;;;;;;4.72;2.00;;;4.90;93.40;;;;;;2063831;28;20037;-90
2021/11/30 00:31:06;;;;;;;5.00;2.03;;;4.90;93.40;;;;;;2064965;28;20098;-90
2021/11/30 00:32:08;;;;;;;6.65;2.70;;;4.90;93.40;;;;;;2056334;28;20628;-89
2021/11/30 00:33:09;;;;;;;4.75;2.20;;;4.90;93.40;;;;;;2065001;28;20481;-90
2021/11/30 00:34:10;;;;;;;5.40;2.65;;;4.90;93.40;;;;;;2072297;28;20064;-89
2021/11/30 00:35:11;;;;;;;5.03;2.42;;;4.90;93.40;;;;;;2057072;28;20034;-87
2021/11/30 00:36:12;;;;;;;6.35;2.35;;;4.90;93.40;;;;;;2056925;28;20043;-88
2021/11/30 00:37:12;;;;;;;7.60;2.97;;;4.90;93.40;;;;;;2056854;28;20078;-88
2021/11/30 00:38:13;;;;;;;7.05;3.03;;;4.90;93.40;;;;;;2067852;28;20045;-88
2021/11/30 00:39:14;;;;;;;5.90;2.85;;;4.90;93.40;;;;;;2071929;28;20032;-88
2021/11/30 00:40:15;;;;;;;6.95;3.08;;;4.90;93.40;;;;;;2062447;28;21887;-89
2021/11/30 00:41:16;;;;;;;9.45;3.40;;;4.90;93.40;;;;;;2048596;28;20035;-88
2021/11/30 00:42:20;;;;;;;8.65;3.40;;;4.90;93.40;;;;;;2056648;28;20031;-88
2021/11/30 00:43:23;;;;;;;7.10;3.15;;;4.90;93.40;;;;;;2069116;28;20448;-89
2021/11/30 00:44:28;;;;;;;6.47;3.20;;;4.90;93.40;;;;;;2064323;28;20034;-89
2021/11/30 00:45:37;;;;;;;7.15;3.30;;;4.90;93.40;;;;;;2071743;28;20030;-90
2021/11/30 00:46:40;;;;;;;7.18;3.40;;;4.90;93.40;;;;;;2077408;28;20546;-88
2021/11/30 00:47:52;;;;;;;9.23;3.50;;;4.90;93.40;;;;;;2071311;28;20037;-89
2021/11/30 00:48:52;;;;;;;8.07;3.25;;;4.90;93.60;;;;;;2073934;28;20496;-89
2021/11/30 00:49:53;;;;;;;7.53;3.40;;;4.90;93.30;;;;;;2064913;28;20030;-89
2021/11/30 00:50:54;;;;;;;6.88;3.38;;;4.90;93.30;;;;;;2056838;28;20031;-89
2021/11/30 00:51:57;;;;;;;7.38;3.40;;;4.90;93.30;;;;;;2056933;28;20034;-89
2021/11/30 00:52:57;;;;;;;7.00;3.70;;;4.90;93.30;;;;;;2057240;28;20265;-89
2021/11/30 00:53:58;;;;;;;7.88;3.55;;;4.90;93.30;;;;;;2056921;28;20497;-89
2021/11/30 00:54:59;;;;;;;7.28;3.55;;;4.90;93.30;;;;;;2056530;28;20045;-90
2021/11/30 00:56:00;;;;;;;7.70;3.38;;;4.90;93.30;;;;;;2056629;28;20409;-89
2021/11/30 00:57:01;;;;;;;6.25;3.38;;;4.90;93.30;;;;;;2064059;28;20026;-89
2021/11/30 00:58:01;;;;;;;10.48;3.70;;;4.90;93.30;;;;;;2052907;28;20038;-89
2021/11/30 00:59:02;;;;;;;7.18;3.80;;;4.90;93.20;;;;;;2064944;28;20049;-89
2021/11/30 01:00:03;;;;;;;8.38;4.18;;;4.90;93.30;;;;;;2065026;28;20028;-89
2021/11/30 01:01:05;;;;;;;9.25;3.60;;;4.90;93.20;;;;;;2064834;28;20035;-89
2021/11/30 01:02:05;;;;;;;7.18;3.42;;;4.90;93.20;;;;;;2064404;28;20118;-89
2021/11/30 01:03:07;;;;;;;7.10;3.38;;;4.90;93.10;;;;;;2061847;28;20412;-89
2021/11/30 01:04:12;;;;;;;7.25;3.38;;;4.80;93.10;;;;;;2064052;28;20030;-89
2021/11/30 01:05:15;;;;;;;7.85;3.42;;;4.90;93.10;;;;;;2057501;28;20019;-89
2021/11/30 01:06:16;;;;;;;6.10;2.80;;;4.90;93.10;;;;;;2056904;28;20058;-90
2021/11/30 01:07:16;;;;;;;8.68;3.30;;;4.90;93.10;;;;;;2050083;28;20035;-89
2021/11/30 01:08:17;;;;;;;6.25;3.55;;;4.90;93.10;;;;;;2063082;28;20084;-89
2021/11/30 01:09:18;;;;;;;6.45;3.00;;;4.90;93.40;;;;;;2055640;28;20129;-89
2021/11/30 01:10:18;;;;;;;7.63;3.00;;;4.90;93.10;;;;;;2056415;28;20584;-87
2021/11/30 01:11:19;;;;;;;6.78;3.40;;;4.90;93.10;;;;;;2049666;28;20035;-89
2021/11/30 01:12:20;;;;;;;10.32;2.90;;;4.90;93.00;;;;;;2056716;28;20057;-89
2021/11/30 01:13:20;;;;;;;7.72;3.40;;;4.90;93.00;;;;;;2064376;28;20026;-89
2021/11/30 01:14:22;;;;;;;6.43;2.67;;;4.90;93.00;;;;;;2049049;28;20059;-89
2021/11/30 01:15:23;;;;;;;5.75;2.80;;;4.90;93.00;;;;;;2040911;28;20537;-89
2021/11/30 01:16:24;;;;;;;6.53;2.55;;;4.90;93.00;;;;;;2049077;28;20031;-89
2021/11/30 01:17:24;;;;;;;6.65;2.50;;;4.90;93.00;;;;;;2065078;28;20041;-89
2021/11/30 01:18:25;;;;;;;8.75;3.10;;;4.90;93.10;;;;;;2055759;28;20046;-88
2021/11/30 01:19:26;;;;;;;6.03;2.80;;;4.90;93.00;;;;;;2050448;28;20032;-89
2021/11/30 01:20:27;;;;;;;5.10;2.28;;;4.90;92.90;;;;;;2074908;28;20045;-89
2021/11/30 01:21:28;;;;;;;5.32;2.58;;;4.90;92.90;;;;;;2073903;28;20377;-89
2021/11/30 01:22:28;;;;;;;6.43;2.70;;;4.90;92.90;;;;;;2066816;28;20081;-89
2021/11/30 01:23:30;;;;;;;6.80;2.60;;;4.90;92.90;;;;;;2064589;28;20029;-90
2021/11/30 01:24:31;;;;;;;5.45;2.78;;;4.90;93.20;;;;;;2065154;28;20467;-90
2021/11/30 01:25:34;;;;;;;8.90;2.80;;;4.80;92.80;;;;;;2072736;28;20037;-90
2021/11/30 01:26:36;;;;;;;5.22;2.65;;;4.90;92.80;;;;;;2054713;28;20031;-88
2021/11/30 01:27:38;;;;;;;6.82;2.60;;;4.90;92.80;;;;;;2049163;28;20466;-88
2021/11/30 01:28:38;;;;;;;4.60;2.40;;;4.90;92.80;;;;;;2056155;28;20098;-88
2021/11/30 01:29:39;;;;;;;5.20;2.35;;;4.90;92.80;;;;;;2053528;28;20027;-86
2021/11/30 01:30:40;;;;;;;6.60;3.00;;;4.90;92.70;;;;;;2064817;28;20030;-89
2021/11/30 01:31:40;;;;;;;6.07;2.63;;;4.90;93.00;;;;;;2056082;28;20027;-87
2021/11/30 01:32:43;;;;;;;4.45;2.22;;;4.90;92.70;;;;;;2057811;28;20023;-87
2021/11/30 01:33:44;;;;;;;5.60;2.67;;;4.80;92.70;;;;;;2066452;28;20034;-87
2021/11/30 01:34:45;;;;;;;9.02;2.53;;;4.90;92.70;;;;;;2059014;28;20458;-87
2021/11/30 01:35:47;;;;;;;5.80;2.35;;;4.80;92.70;;;;;;2066477;28;20571;-86
2021/11/30 01:36:48;;;;;;;6.10;2.70;;;4.80;92.90;;;;;;2073769;28;20041;-88
2021/11/30 01:37:49;;;;;;;5.60;2.38;;;4.80;92.70;;;;;;2065837;28;20090;-87
2021/11/30 01:38:50;;;;;;;5.05;2.58;;;4.80;92.70;;;;;;2058176;28;20101;-87
2021/11/30 01:39:51;;;;;;;5.10;2.55;;;4.80;92.70;;;;;;2057113;28;20034;-88
2021/11/30 01:40:51;;;;;;;6.65;2.53;;;4.70;93.00;;;;;;2057676;28;20034;-89
2021/11/30 01:41:53;;;;;;;4.65;2.13;;;4.70;92.70;;;;;;2065456;28;20061;-90
2021/11/30 01:42:57;;;;;;;5.43;2.65;;;4.70;92.80;;;;;;2074509;28;20158;-89
2021/11/30 01:44:00;;;;;;;5.72;2.55;;;4.70;92.80;;;;;;2082511;28;20040;-90
2021/11/30 01:45:06;;;;;;;5.07;2.55;;;4.70;92.80;;;;;;2083191;28;20034;-89
2021/11/30 01:46:12;;;;;;;6.35;3.05;;;4.60;92.80;;;;;;2072974;28;20026;-89
2021/11/30 01:49:34;;;;;;;5.18;2.97;;;4.60;92.90;;;;;;2075122;28;20088;-89
2021/11/30 01:50:39;;;;;;;6.95;2.83;;;4.60;92.90;;;;;;2073481;28;20105;-90
2021/11/30 01:51:40;;;;;;;7.32;3.00;;;4.50;92.90;;;;;;2065701;28;20037;-89
2021/11/30 01:52:40;;;;;;;5.97;3.10;;;4.50;92.90;;;;;;2059138;28;20062;-89
2021/11/30 01:53:41;;;;;;;6.72;2.75;;;4.50;93.00;;;;;;2067796;28;20121;-89
2021/11/30 01:54:43;;;;;;;6.55;3.20;;;4.50;93.00;;;;;;2083000;28;20022;-89
2021/11/30 01:55:45;;;;;;;5.70;3.03;;;4.50;93.00;;;;;;2083098;28;20030;-90
2021/11/30 01:56:46;;;;;;;8.55;3.13;;;4.40;93.00;;;;;;2073818;28;20073;-90
2021/11/30 01:57:49;;;;;;;4.95;2.60;;;4.40;93.10;;;;;;2074347;28;20050;-90
2021/11/30 01:58:50;;;;;;;7.97;3.40;;;4.40;93.10;;;;;;2073633;28;20029;-89
2021/11/30 01:59:53;;;;;;;5.88;3.00;;;4.40;93.10;;;;;;2057942;28;20054;-90
2021/11/30 02:00:54;;;;;;;7.38;3.10;;;4.40;93.10;;;;;;2051206;28;20020;-90
2021/11/30 02:01:55;;;;;;;6.57;3.25;;;4.40;93.20;;;;;;2056846;28;20026;-90
2021/11/30 02:02:56;;;;;;;9.98;3.60;;;4.40;93.20;;;;;;2049069;28;20033;-90
2021/11/30 02:03:57;;;;;;;7.38;3.53;;;4.30;93.20;;;;;;2063325;28;20026;-90
2021/11/30 02:04:57;;;;;;;9.60;3.60;;;4.30;93.20;;;;;;2066241;28;20113;-90
2021/11/30 02:05:58;;;;;;;10.02;4.03;;;4.30;93.30;;;;;;2047099;28;20102;-90
2021/11/30 02:06:59;;;;;;;9.82;4.07;;;4.30;93.30;;;;;;2058180;28;20077;-90
2021/11/30 02:07:59;;;;;;;10.48;4.40;;;4.20;93.30;;;;;;2056407;28;20501;-90
2021/11/30 02:09:01;;;;;;;13.88;4.40;;;4.20;93.30;;;;;;2073851;28;20057;-89
2021/11/30 02:10:06;;;;;;;11.88;4.32;;;4.20;93.40;;;;;;2080452;28;20128;-89
2021/11/30 02:11:07;;;;;;;10.85;4.40;;;4.20;93.40;;;;;;2082871;28;20452;-90
2021/11/30 02:12:08;;;;;;;11.65;4.57;;;4.20;93.40;;;;;;2087070;28;20036;-89
2021/11/30 02:13:10;;;;;;;10.95;4.47;;;4.20;93.50;;;;;;2075608;28;20492;-89
2021/11/30 02:14:10;;;;;;;10.93;4.35;;;4.20;93.50;;;;;;2057939;28;20038;-90
2021/11/30 02:15:13;;;;;;;12.07;4.97;;;4.10;93.50;;;;;;2074127;28;20088;-89
2021/11/30 02:16:16;;;;;;;13.85;4.50;;;4.20;93.60;;;;;;2074395;28;20041;-89
2021/11/30 02:17:16;;;;;;;13.05;4.40;;;4.10;93.60;;;;;;2066511;28;20053;-89
2021/11/30 02:18:23;;;;;;;16.05;5.38;;;4.10;93.60;;;;;;2050388;28;20043;-87
2021/11/30 02:19:24;;;;;;;11.90;4.30;;;4.10;93.60;;;;;;2061590;28;20047;-89
2021/11/30 02:20:25;;;;;;;11.38;4.68;;;4.10;93.60;;;;;;2083080;28;20037;-89
2021/11/30 02:21:29;;;;;;;11.98;5.10;;;4.10;93.70;;;;;;2091128;28;20059;-89
2021/11/30 02:22:29;;;;;;;16.55;5.47;;;4.10;93.70;;;;;;2081521;28;20052;-89
2021/11/30 02:24:42;;;;;;;14.48;5.57;;;4.10;94.00;;;;;;2090379;28;20113;-88
2021/11/30 02:25:42;;;;;;;16.13;5.85;;;4.10;93.70;;;;;;2083557;28;20025;-88
2021/11/30 02:26:43;;;;;;;13.93;5.45;;;4.00;93.70;;;;;;2065682;28;20419;-88
2021/11/30 02:27:44;;;;;;;13.57;6.10;;;4.10;93.80;;;;;;2071547;28;20037;-88
2021/11/30 02:28:49;;;;;;;17.35;5.78;;;4.00;93.80;;;;;;2087045;28;20028;-88
2021/11/30 02:29:50;;;;;;;14.98;5.50;;;4.00;93.80;;;;;;2088613;28;20016;-88
2021/11/30 02:30:51;;;;;;;14.75;5.53;;;4.00;93.80;;;;;;2090385;28;20521;-88
2021/11/30 02:31:52;;;;;;;15.85;6.47;;;4.00;93.80;;;;;;2082261;28;20068;-88
2021/11/30 02:32:53;;;;;;;12.68;5.47;;;4.00;93.80;;;;;;2089460;28;20578;-88
2021/11/30 02:33:54;;;;;;;11.60;5.43;;;4.00;93.90;;;;;;2090397;28;20170;-88
2021/11/30 02:34:54;;;;;;;12.05;4.70;;;4.00;93.90;;;;;;2089582;28;20025;-88
2021/11/30 02:35:55;;;;;;;10.93;5.38;;;4.00;93.90;;;;;;2090933;28;20025;-89
2021/11/30 02:37:04;;;;;;;12.77;5.60;;;4.00;93.90;;;;;;2090549;28;20513;-89
2021/11/30 02:38:08;;;;;;;14.68;5.70;;;3.90;94.00;;;;;;2066264;28;20030;-88
2021/11/30 02:39:13;;;;;;;11.18;4.80;;;4.00;94.00;;;;;;2061380;28;20425;-89
2021/11/30 02:40:15;;;;;;;10.73;5.53;;;3.90;94.00;;;;;;2075755;28;20049;-88
2021/11/30 02:41:15;;;;;;;12.52;5.10;;;3.90;94.00;;;;;;2067870;28;20026;-88
2021/11/30 02:42:16;;;;;;;9.90;4.78;;;3.90;94.30;;;;;;2068965;28;20031;-89
2021/11/30 02:43:17;;;;;;;11.85;5.35;;;3.90;94.00;;;;;;2081147;28;20108;-88
2021/11/30 02:44:21;;;;;;;10.80;5.20;;;4.00;94.10;;;;;;2093676;28;20033;-88
2021/11/30 02:45:21;;;;;;;10.15;5.07;;;4.00;94.10;;;;;;2095020;28;20017;-88
2021/11/30 02:46:29;;;;;;;13.38;5.53;;;4.00;94.10;;;;;;2093978;28;20029;-88
2021/11/30 02:47:30;;;;;;;9.82;5.13;;;4.00;94.10;;;;;;2090119;28;20503;-89
2021/11/30 02:48:31;;;;;;;12.68;5.45;;;3.90;94.10;;;;;;2094292;28;20041;-88
2021/11/30 02:49:34;;;;;;;9.65;4.85;;;3.90;94.10;;;;;;2083819;28;20026;-89
2021/11/30 02:50:41;;;;;;;11.18;5.75;;;3.90;94.10;;;;;;2081830;28;20112;-89
2021/11/30 02:51:44;;;;;;;11.13;5.10;;;3.90;94.10;;;;;;2090638;28;20453;-90
2021/11/30 02:52:45;;;;;;;9.18;5.15;;;4.00;94.20;;;;;;2089419;28;20060;-89
2021/11/30 02:53:46;;;;;;;10.05;4.75;;;4.00;94.20;;;;;;2081045;28;20029;-89
2021/11/30 02:54:54;;;;;;;9.48;4.68;;;4.00;94.20;;;;;;2082118;28;20033;-89
2021/11/30 02:55:54;;;;;;;10.00;5.05;;;4.00;94.20;;;;;;2089217;28;20048;-89
2021/11/30 02:56:57;;;;;;;10.85;4.90;;;4.00;94.20;;;;;;2090066;28;20082;-90
2021/11/30 02:57:58;;;;;;;10.40;5.30;;;4.00;94.50;;;;;;2077918;28;20103;-89
2021/11/30 02:58:58;;;;;;;9.55;4.75;;;4.00;94.20;;;;;;2079472;28;20388;-89
2021/11/30 02:59:59;;;;;;;9.30;5.30;;;4.00;94.20;;;;;;2081564;28;20342;-90
2021/11/30 03:01:03;;;;;;;13.82;6.07;;;3.90;94.20;;;;;;2073046;28;20021;-88
2021/11/30 03:02:11;;;;;;;9.10;5.10;;;4.00;94.30;;;;;;2074173;28;20122;-88
2021/11/30 03:03:11;;;;;;;10.32;5.20;;;4.00;94.30;;;;;;2082268;28;20116;-89
2021/11/30 03:04:13;;;;;;;11.50;5.15;;;4.00;94.30;;;;;;2073050;28;20030;-88
2021/11/30 03:05:14;;;;;;;10.38;5.35;;;4.00;94.30;;;;;;2070708;28;20361;-89
2021/11/30 03:06:15;;;;;;;12.30;5.90;;;4.00;94.30;;;;;;2073844;28;20116;-89
2021/11/30 03:07:22;;;;;;;12.90;6.25;;;4.00;94.30;;;;;;2083464;28;20033;-89
2021/11/30 03:08:23;;;;;;;9.45;5.35;;;4.00;94.30;;;;;;2084088;28;20021;-89
2021/11/30 03:09:24;;;;;;;10.32;5.28;;;4.00;94.30;;;;;;2080495;28;20025;-87
2021/11/30 03:10:25;;;;;;;10.85;6.18;;;4.00;94.30;;;;;;2089399;28;20041;-87
2021/11/30 03:11:26;;;;;;;12.43;6.60;;;4.00;94.30;;;;;;2097566;28;20069;-88
2021/11/30 03:12:27;;;;;;;10.95;5.88;;;4.00;94.30;;;;;;2073582;28;20559;-89
2021/11/30 03:13:27;;;;;;;11.07;6.20;;;4.00;94.40;;;;;;2073519;28;20022;-88
2021/11/30 03:14:29;;;;;;;10.73;6.00;;;4.00;94.40;;;;;;2073685;28;20026;-89
2021/11/30 03:15:29;;;;;;;8.60;5.57;;;4.00;94.40;;;;;;2070731;28;20028;-88
2021/11/30 03:16:32;;;;;;;10.73;6.20;;;4.10;94.40;;;;;;2089336;28;20033;-89
2021/11/30 03:17:32;;;;;;;10.57;6.13;;;4.10;94.40;;;;;;2088805;28;20430;-89
2021/11/30 03:18:36;;;;;;;10.73;6.60;;;4.10;94.40;;;;;;2072994;28;20038;-90
2021/11/30 03:19:37;;;;;;;8.48;5.43;;;4.10;94.50;;;;;;2074272;28;20384;-89
2021/11/30 03:20:38;;;;;;;10.45;5.90;;;4.10;94.40;;;;;;2073127;28;20034;-89
2021/11/30 03:21:38;;;;;;;9.68;6.15;;;4.10;94.50;;;;;;2073657;28;20022;-88
2021/11/30 03:22:39;;;;;;;10.45;6.45;;;4.10;94.50;;;;;;2073636;28;20480;-86
2021/11/30 03:23:42;;;;;;;9.10;5.85;;;4.10;94.50;;;;;;2092954;28;20060;-87
2021/11/30 03:24:42;;;;;;;10.68;6.50;;;4.10;94.50;;;;;;2089771;28;20059;-87
2021/11/30 03:25:43;;;;;;;9.05;5.95;;;4.10;94.50;;;;;;2087828;28;20123;-87
2021/11/30 03:26:44;;;;;;;9.77;6.15;;;4.10;94.50;;;;;;2090699;28;20064;-88
2021/11/30 03:27:47;;;;;;;12.02;6.95;;;4.20;94.50;;;;;;2090259;28;20036;-87
2021/11/30 03:28:48;;;;;;;11.20;6.70;;;4.20;94.50;;;;;;2088831;28;20025;-88
2021/11/30 03:29:49;;;;;;;10.48;6.18;;;4.20;94.50;;;;;;2089960;28;20495;-90
2021/11/30 03:30:57;;;;;;;8.93;6.38;;;4.20;94.50;;;;;;2073266;28;20029;-89
2021/11/30 03:32:13;;;;;;;9.73;5.97;;;4.20;94.50;;;;;;2083775;28;20132;-89
2021/11/30 03:34:35;;;;;;;10.60;6.88;;;4.20;94.50;;;;;;2083541;28;20092;-89
2021/11/30 03:35:35;;;;;;;8.63;6.68;;;4.30;94.60;;;;;;2084519;28;20482;-89
2021/11/30 03:36:38;;;;;;;9.65;6.78;;;4.20;94.50;;;;;;2072744;28;20124;-89
2021/11/30 03:37:39;;;;;;;9.20;6.68;;;4.20;94.50;;;;;;2081726;28;20028;-89
2021/11/30 03:38:40;;;;;;;10.40;7.13;;;4.30;94.60;;;;;;2081518;28;20399;-87
2021/11/30 03:39:40;;;;;;;12.23;7.32;;;4.30;94.60;;;;;;2073129;28;20463;-88
2021/11/30 03:40:41;;;;;;;9.30;6.60;;;4.30;94.60;;;;;;2073453;28;20068;-88
2021/11/30 03:41:44;;;;;;;9.07;6.53;;;4.30;94.60;;;;;;2081288;28;20022;-88
2021/11/30 03:42:44;;;;;;;8.23;6.50;;;4.30;94.60;;;;;;2088671;28;20473;-87
2021/11/30 03:43:45;;;;;;;10.02;7.00;;;4.30;94.60;;;;;;2073431;28;20029;-87
2021/11/30 03:44:46;;;;;;;11.48;7.18;;;4.40;94.60;;;;;;2072569;28;20543;-87
2021/11/30 03:45:47;;;;;;;9.85;6.85;;;4.40;94.60;;;;;;2080720;28;20018;-89
2021/11/30 03:46:49;;;;;;;9.57;7.10;;;4.40;94.70;;;;;;2090042;28;20029;-89
2021/11/30 03:47:49;;;;;;;10.13;6.88;;;4.40;94.70;;;;;;2089850;28;20483;-89
2021/11/30 03:48:50;;;;;;;8.48;7.00;;;4.40;94.70;;;;;;2089992;28;20073;-88
2021/11/30 03:49:51;;;;;;;11.05;6.70;;;4.40;94.70;;;;;;2090314;28;20021;-89
2021/11/30 03:50:51;;;;;;;9.30;6.90;;;4.40;94.60;;;;;;2089848;28;20033;-88
2021/11/30 03:51:52;;;;;;;9.27;6.95;;;4.40;94.70;;;;;;2081545;28;20056;-89
2021/11/30 03:52:53;;;;;;;8.98;6.43;;;4.50;94.70;;;;;;2089614;28;20415;-89
2021/11/30 03:53:53;;;;;;;8.68;6.57;;;4.50;94.70;;;;;;2081303;28;20063;-89
2021/11/30 03:54:55;;;;;;;8.75;6.43;;;4.50;94.70;;;;;;2072835;28;20088;-89
2021/11/30 03:55:56;;;;;;;10.20;7.05;;;4.50;94.70;;;;;;2081558;28;20026;-88
2021/11/30 03:56:57;;;;;;;8.60;7.00;;;4.50;94.70;;;;;;2073208;28;20080;-89
2021/11/30 03:57:58;;;;;;;9.15;6.43;;;4.50;94.70;;;;;;2073145;28;20042;-88
2021/11/30 03:58:59;;;;;;;9.70;6.47;;;4.50;94.70;;;;;;2063979;28;20069;-89
2021/11/30 04:00:05;;;;;;;9.25;5.97;;;4.50;94.70;;;;;;2073583;28;20076;-89
2021/11/30 04:01:05;;;;;;;7.55;6.38;;;4.60;94.80;;;;;;2083104;28;20092;-89
2021/11/30 04:02:06;;;;;;;8.30;6.30;;;4.50;94.70;;;;;;2077263;28;20041;-89
2021/11/30 04:03:07;;;;;;;8.35;6.45;;;4.50;94.70;;;;;;2069420;28;20022;-89
2021/11/30 04:04:11;;;;;;;9.77;7.07;;;4.60;94.80;;;;;;2081394;28;20523;-88
2021/11/30 04:05:12;;;;;;;9.80;6.72;;;4.60;94.80;;;;;;2089051;28;20029;-89
2021/11/30 04:06:12;;;;;;;7.50;6.20;;;4.60;94.80;;;;;;2065283;28;20117;-88
2021/11/30 04:07:14;;;;;;;10.25;6.93;;;4.70;94.80;;;;;;2056586;28;20030;-89
2021/11/30 04:08:15;;;;;;;8.40;6.35;;;4.60;94.80;;;;;;2073480;28;20038;-89
2021/11/30 04:09:16;;;;;;;8.95;6.72;;;4.70;94.80;;;;;;2065316;28;20046;-88
2021/11/30 04:10:17;;;;;;;9.23;6.55;;;4.70;94.80;;;;;;2072510;28;20034;-89
2021/11/30 04:11:21;;;;;;;8.40;6.10;;;4.70;94.80;;;;;;2084384;28;20041;-89
2021/11/30 04:12:21;;;;;;;8.18;7.07;;;4.70;94.80;;;;;;2090292;28;20399;-89
2021/11/30 04:13:22;;;;;;;8.02;6.38;;;4.70;94.80;;;;;;2078260;28;20124;-88
2021/11/30 04:14:23;;;;;;;8.15;6.43;;;4.70;94.80;;;;;;2079051;28;20044;-88
2021/11/30 04:15:24;;;;;;;7.22;6.00;;;4.70;94.80;;;;;;2089735;28;20048;-90
2021/11/30 04:16:24;;;;;;;8.98;6.18;;;4.80;94.90;;;;;;2089736;28;20068;-89
2021/11/30 04:17:25;;;;;;;8.43;5.95;;;4.80;94.90;;;;;;2090055;28;20025;-89
2021/11/30 04:18:26;;;;;;;6.93;5.20;;;4.80;94.90;;;;;;2090305;28;20033;-89
2021/11/30 04:19:27;;;;;;;8.90;5.97;;;4.80;94.90;;;;;;2090212;28;20443;-88
2021/11/30 04:20:27;;;;;;;6.65;5.20;;;4.80;94.90;;;;;;2085933;28;20034;-89
2021/11/30 04:21:28;;;;;;;7.05;5.57;;;4.90;94.90;;;;;;2085183;28;20025;-89
2021/11/30 04:22:29;;;;;;;6.22;4.95;;;4.90;94.90;;;;;;2090341;28;20033;-88
2021/11/30 04:23:30;;;;;;;6.07;4.95;;;4.90;94.90;;;;;;2084858;28;20053;-89
2021/11/30 04:24:30;;;;;;;7.13;4.85;;;5.00;95.00;;;;;;2066859;28;20031;-89
2021/11/30 04:25:31;;;;;;;6.38;5.22;;;5.00;94.90;;;;;;2073277;28;20053;-89
2021/11/30 04:26:32;;;;;;;5.68;4.82;;;5.00;95.20;;;;;;2089070;28;20056;-88
2021/11/30 04:27:32;;;;;;;7.35;5.07;;;5.00;95.00;;;;;;2089877;28;20017;-89
2021/11/30 04:28:33;;;;;;;5.90;4.63;;;5.10;95.00;;;;;;2090128;28;20029;-89
2021/11/30 04:29:37;;;;;;;5.55;4.50;;;5.10;95.00;;;;;;2090160;28;20037;-89
2021/11/30 04:30:38;;;;;;;5.65;4.32;;;5.10;95.00;;;;;;2089094;28;20041;-89
2021/11/30 04:31:39;;;;;;;5.60;4.30;;;5.10;94.90;;;;;;2089678;28;20128;-89
2021/11/30 04:32:40;;;;;;;5.68;4.15;;;5.20;95.00;;;;;;2090427;28;20097;-88
2021/11/30 04:33:41;;;;;;;4.88;4.00;;;5.20;94.90;;;;;;2086934;28;20468;-89
2021/11/30 04:34:41;;;;;;;5.05;3.88;;;5.20;95.00;;;;;;2090241;28;20025;-89
2021/11/30 04:35:42;;;;;;;5.20;4.10;;;5.30;95.00;;;;;;2090293;28;20013;-90
2021/11/30 04:36:44;;;;;;;4.72;3.95;;;5.20;94.90;;;;;;2073217;28;20204;-90
2021/11/30 04:37:45;;;;;;;4.85;4.00;;;5.30;95.00;;;;;;2084094;28;20021;-90
2021/11/30 04:38:46;;;;;;;4.50;3.70;;;5.30;95.00;;;;;;2084435;28;20390;-89
2021/11/30 04:39:46;;;;;;;5.10;4.25;;;5.30;95.00;;;;;;2076688;28;20141;-89
2021/11/30 04:40:47;;;;;;;4.95;3.88;;;5.30;95.20;;;;;;2084763;28;20630;-89
2021/11/30 04:41:47;;;;;;;4.40;3.53;;;5.40;95.00;;;;;;2075628;28;20041;-89
2021/11/30 04:42:49;;;;;;;4.90;3.60;;;5.40;95.00;;;;;;2081328;28;20104;-89
2021/11/30 04:43:49;;;;;;;4.30;3.53;;;5.40;95.00;;;;;;2074612;28;20049;-89
2021/11/30 04:44:55;;;;;;;4.18;3.50;;;5.40;95.00;;;;;;2071351;28;20043;-89
2021/11/30 04:45:59;;;;;;;4.50;3.50;;;5.40;95.00;;;;;;2058781;28;20511;-90
2021/11/30 04:47:07;;;;;;;6.85;3.60;;;5.40;95.00;;;;;;2067736;28;20073;-90
2021/11/30 04:48:07;;;;;;;4.75;3.47;;;5.50;95.00;;;;;;2089669;28;20028;-90
2021/11/30 04:50:46;;;;;;;3.55;2.92;;;5.50;95.00;;;;;;2065764;28;20030;-90
2021/11/30 04:51:47;;;;;;;4.00;3.22;;;5.50;95.00;;;;;;2082810;28;20037;-90
2021/11/30 04:52:49;;;;;;;4.90;3.72;;;5.50;95.00;;;;;;2081410;28;20026;-90
2021/11/30 04:53:51;;;;;;;4.03;3.30;;;5.50;95.00;;;;;;2088301;28;20060;-90
2021/11/30 04:54:51;;;;;;;4.15;3.35;;;5.50;95.00;;;;;;2089083;28;20028;-90
2021/11/30 04:55:52;;;;;;;4.00;3.15;;;5.50;95.00;;;;;;2089426;28;20021;-90
2021/11/30 04:56:53;;;;;;;4.25;3.20;;;5.60;95.10;;;;;;2088777;28;20044;-88
2021/11/30 04:58:00;;;;;;;3.92;3.20;;;5.60;95.10;;;;;;2089489;28;20123;-91
2021/11/30 04:59:00;;;;;;;3.72;3.30;;;5.60;95.10;;;;;;2088863;28;20418;-90
2021/11/30 05:00:02;;;;;;;3.90;3.15;;;5.60;95.10;;;;;;2064858;28;20026;-90
2021/11/30 05:01:02;;;;;;;4.45;3.30;;;5.60;95.10;;;;;;2060517;28;20031;-90
2021/11/30 05:02:03;;;;;;;4.20;3.25;;;5.60;95.10;;;;;;2076461;28;20108;-90
2021/11/30 05:03:09;;;;;;;4.28;3.40;;;5.60;95.10;;;;;;2072429;28;20096;-90
2021/11/30 05:04:09;;;;;;;3.55;2.90;;;5.60;95.10;;;;;;2080312;28;20036;-90
2021/11/30 05:05:13;;;;;;;4.18;3.22;;;5.70;95.10;;;;;;2072447;28;20033;-90
2021/11/30 05:06:14;;;;;;;4.03;3.28;;;5.70;95.10;;;;;;2080746;28;20414;-89
2021/11/30 05:07:16;;;;;;;3.90;3.10;;;5.70;95.10;;;;;;2078718;28;20029;-90
2021/11/30 05:08:17;;;;;;;4.32;3.10;;;5.70;95.10;;;;;;2076453;28;20045;-90
2021/11/30 05:09:17;;;;;;;3.63;2.80;;;5.70;95.20;;;;;;2081066;28;20459;-90
2021/11/30 05:10:18;;;;;;;3.75;2.95;;;5.70;95.40;;;;;;2080627;28;20061;-90
2021/11/30 05:11:19;;;;;;;3.70;3.00;;;5.70;95.20;;;;;;2089218;28;20037;-89
2021/11/30 05:12:19;;;;;;;3.55;3.05;;;5.70;95.20;;;;;;2072752;28;20068;-88
2021/11/30 05:13:20;;;;;;;3.78;3.13;;;5.80;95.20;;;;;;2063443;28;20030;-87
2021/11/30 05:14:21;;;;;;;4.32;3.33;;;5.80;95.20;;;;;;2089441;28;20445;-88
2021/11/30 05:15:22;;;;;;;3.75;3.08;;;5.80;95.20;;;;;;2080215;28;20033;-88
2021/11/30 05:16:22;;;;;;;4.43;3.58;;;5.80;95.20;;;;;;2064534;28;20038;-88
2021/11/30 05:17:23;;;;;;;4.78;3.53;;;5.90;95.30;;;;;;2072857;28;20034;-88
2021/11/30 05:18:24;;;;;;;3.97;3.17;;;5.80;95.30;;;;;;2072682;28;20038;-90
2021/11/30 05:19:24;;;;;;;3.80;3.40;;;5.90;95.30;;;;;;2080343;28;20026;-90
2021/11/30 05:20:25;;;;;;;4.60;3.70;;;5.90;95.30;;;;;;2089620;28;20036;-90
2021/11/30 05:21:26;;;;;;;3.95;3.30;;;5.90;95.30;;;;;;2089423;28;20410;-91
2021/11/30 05:22:28;;;;;;;4.18;3.40;;;5.90;95.30;;;;;;2088662;28;20111;-89
2021/11/30 05:23:29;;;;;;;5.03;3.20;;;5.90;95.30;;;;;;2080897;28;20072;-90
2021/11/30 05:24:30;;;;;;;3.67;3.05;;;5.90;95.30;;;;;;2080738;28;20037;-90
2021/11/30 05:25:34;;;;;;;4.00;3.20;;;5.90;95.30;;;;;;2089440;28;20032;-91
2021/11/30 05:26:36;;;;;;;3.95;3.10;;;6.00;95.30;;;;;;2089232;28;20039;-89
2021/11/30 05:27:40;;;;;;;3.88;2.97;;;6.00;95.40;;;;;;2089793;28;20021;-91
2021/11/30 05:28:42;;;;;;;3.97;3.08;;;6.00;95.40;;;;;;2089269;28;20119;-90
2021/11/30 05:29:43;;;;;;;3.75;3.05;;;6.00;95.40;;;;;;2090029;28;20091;-89
2021/11/30 05:30:44;;;;;;;4.00;3.10;;;6.00;95.40;;;;;;2089701;28;20124;-89
2021/11/30 05:31:44;;;;;;;3.70;3.00;;;6.00;95.30;;;;;;2090075;28;20483;-89
2021/11/30 05:32:46;;;;;;;3.60;3.00;;;6.00;95.40;;;;;;2089168;28;20021;-89